Time;durP1;ratioP1;P1;durP2;ratioP2;P2;SDS_P1;SDS_P2;PMS_P1;PMS_P2;Temp;Humidity;BMP_temperature;BMP_pressure;BME280_temperature;BME280_humidity;BME280_pressure;Samples;Min_cycle;Max_cycle;Signal;HPM_P1;HPM_P2
2022/08/12 00:43:58;;;;;;;9.05;4.47;;;;;;;17.85;82.20;101915.28;4932423;29;20054;-70
2022/08/12 00:46:40;;;;;;;8.13;4.55;;;;;;;17.93;81.58;101901.22;4930333;28;20045;-70
2022/08/12 00:49:06;;;;;;;5.85;4.40;;;;;;;18.25;80.45;101906.78;4932162;29;20035;-69
2022/08/12 00:54:16;;;;;;;7.47;4.32;;;;;;;18.19;81.46;101901.00;4932343;28;20043;-70
2022/08/12 00:56:43;;;;;;;7.15;4.05;;;;;;;18.23;81.43;101902.50;4933424;29;20751;-70
2022/08/12 00:59:09;;;;;;;6.30;4.40;;;;;;;18.36;80.69;101909.47;4933409;29;20075;-70
2022/08/12 01:01:36;;;;;;;11.90;4.78;;;;;;;18.26;81.92;101910.34;4920770;29;20110;-69
2022/08/12 01:12:24;;;;;;;8.00;5.40;;;;;;;18.41;81.95;101910.97;4933507;28;20102;-70
2022/08/12 01:14:53;;;;;;;10.52;6.15;;;;;;;18.32;82.73;101913.44;4923040;29;20038;-69
2022/08/12 01:17:21;;;;;;;7.40;5.43;;;;;;;18.32;83.19;101902.63;4931931;29;20075;-70
2022/08/12 01:19:51;;;;;;;9.60;5.72;;;;;;;18.16;84.71;101904.78;4928027;29;20047;-69
2022/08/12 01:23:04;;;;;;;7.82;5.22;;;;;;;18.20;84.53;101903.59;4920225;28;20043;-69
2022/08/12 01:25:36;;;;;;;11.57;4.93;;;;;;;17.95;86.06;101910.03;4924473;28;20059;-69
2022/08/12 01:28:03;;;;;;;;;;;;;;;17.48;85.89;101910.94;4933449;29;20053;-69
2022/08/12 01:30:32;;;;;;;10.70;5.07;;;;;;;17.79;87.46;101910.34;4922482;29;19926;-70
2022/08/12 01:33:01;;;;;;;7.68;5.13;;;;;;;17.97;85.95;101909.91;4931726;29;20043;-69
2022/08/12 01:35:31;;;;;;;8.30;5.05;;;;;;;17.84;87.38;101916.25;4933656;28;20043;-69
2022/08/12 01:38:01;;;;;;;12.80;5.47;;;;;;;17.93;86.82;101914.69;4916734;29;20044;-70
2022/08/12 01:40:32;;;;;;;10.05;5.50;;;;;;;17.77;87.54;101916.84;4914328;29;20064;-70
2022/08/12 01:43:06;;;;;;;8.60;5.70;;;;;;;17.49;87.76;101909.97;4920043;29;20375;-69
2022/08/12 01:45:33;;;;;;;8.57;5.22;;;;;;;17.65;87.84;101915.06;4914869;29;20259;-69
2022/08/12 01:48:08;;;;;;;6.55;4.88;;;;;;;17.74;87.93;101915.25;4931220;29;20429;-69
2022/08/12 01:50:36;;;;;;;12.68;5.00;;;;;;;17.58;89.89;101910.13;4913154;29;20035;-70
2022/08/12 01:53:11;;;;;;;13.52;5.82;;;;;;;17.70;89.22;101911.03;4918264;29;20101;-70
2022/08/12 01:55:40;;;;;;;11.00;5.35;;;;;;;17.82;88.53;101910.13;4911616;28;20050;-70
2022/08/12 01:58:27;;;;;;;12.98;5.55;;;;;;;17.75;89.38;101908.00;4912106;29;20103;-70
2022/08/12 02:01:02;;;;;;;8.52;5.43;;;;;;;17.64;90.11;101907.94;4911302;29;20039;-70
2022/08/12 02:13:01;;;;;;;8.40;5.15;;;;;;;17.61;90.63;101904.50;4912824;29;20044;-70
2022/08/12 02:15:52;;;;;;;16.95;5.65;;;;;;;17.56;91.20;101906.69;4912405;29;20708;-69
2022/08/12 02:18:54;;;;;;;9.10;5.78;;;;;;;17.57;91.26;101912.94;4912512;29;20044;-69
2022/08/12 02:21:35;;;;;;;11.63;6.65;;;;;;;17.49;91.87;101904.56;4912198;29;20137;-70
2022/08/12 02:24:03;;;;;;;12.45;7.30;;;;;;;17.37;92.98;101905.47;4926332;28;20095;-70
2022/08/12 02:26:32;;;;;;;9.05;6.05;;;;;;;17.31;93.41;101902.28;4929681;28;20043;-69
2022/08/12 02:28:58;;;;;;;13.15;6.55;;;;;;;17.27;93.82;101900.81;4928612;29;20756;-69
2022/08/12 02:31:27;;;;;;;8.45;6.22;;;;;;;17.07;95.18;101902.28;4931745;29;20035;-70
2022/08/12 02:33:53;;;;;;;12.05;6.20;;;;;;;17.16;94.60;101894.47;4929586;29;20192;-70
2022/08/12 02:36:19;;;;;;;9.77;7.45;;;;;;;17.17;94.77;101901.56;4929993;29;20549;-70
2022/08/12 02:38:46;;;;;;;13.50;7.55;;;;;;;17.29;93.99;101895.28;4929614;29;20050;-70
2022/08/12 02:41:15;;;;;;;10.07;6.35;;;;;;;17.17;94.76;101890.78;4930557;29;20046;-70
2022/08/12 02:43:50;;;;;;;8.48;6.95;;;;;;;17.29;94.46;101904.22;4931013;29;20071;-69
2022/08/12 02:46:29;;;;;;;10.85;6.60;;;;;;;17.23;95.12;101895.75;4930072;28;20045;-70
2022/08/12 02:49:09;;;;;;;10.85;6.75;;;;;;;17.05;96.13;101897.97;4930400;29;20043;-70
2022/08/12 02:51:39;;;;;;;14.23;6.75;;;;;;;16.93;97.09;101890.78;4931305;29;20043;-70
2022/08/12 02:54:06;;;;;;;13.60;7.05;;;;;;;16.97;96.66;101900.38;4929615;29;20039;-70
2022/08/12 02:56:36;;;;;;;9.32;7.15;;;;;;;17.02;96.37;101896.38;4931032;29;20235;-69
2022/08/12 02:59:02;;;;;;;11.85;7.50;;;;;;;16.95;98.40;101897.78;4928711;28;20496;-69
2022/08/12 03:01:34;;;;;;;11.02;7.40;;;;;;;17.02;98.04;101901.75;4930285;28;20055;-71
2022/08/12 03:04:04;;;;;;;14.25;7.05;;;;;;;16.71;100.00;101896.84;4929234;29;20066;-71
2022/08/12 03:06:50;;;;;;;10.20;7.07;;;;;;;16.41;99.67;101898.06;4930063;29;20138;-70
2022/08/12 03:09:17;;;;;;;12.90;7.25;;;;;;;16.43;100.00;101897.97;4930053;29;20039;-69
2022/08/12 03:11:51;;;;;;;10.90;6.75;;;;;;;16.24;100.00;101893.88;4929997;29;20039;-70
2022/08/12 03:14:17;;;;;;;9.82;7.03;;;;;;;16.25;100.00;101900.13;4912689;29;20984;-70
2022/08/12 03:16:49;;;;;;;11.00;6.68;;;;;;;16.36;100.00;101899.34;4930161;29;20042;-70
2022/08/12 03:19:19;;;;;;;8.30;6.88;;;;;;;16.52;100.00;101895.50;4930084;29;20039;-71
2022/08/12 03:21:47;;;;;;;12.80;7.40;;;;;;;16.46;100.00;101885.13;4929557;29;20055;-70
2022/08/12 03:24:16;;;;;;;9.95;7.22;;;;;;;16.42;100.00;101901.63;4930067;29;20042;-70
2022/08/12 03:26:46;;;;;;;14.90;7.72;;;;;;;16.51;100.00;101892.88;4933258;28;20949;-69
2022/08/12 03:29:15;;;;;;;11.05;7.47;;;;;;;16.56;100.00;101894.28;4930139;28;20039;-69
2022/08/12 03:31:42;;;;;;;12.40;7.82;;;;;;;16.77;100.00;101896.44;4930768;29;20039;-70
2022/08/12 03:34:12;;;;;;;15.93;7.15;;;;;;;16.72;100.00;101898.63;4930050;29;20126;-70
2022/08/12 03:36:40;;;;;;;11.52;7.20;;;;;;;16.75;100.00;101896.53;4930587;29;20039;-70
2022/08/12 03:39:34;;;;;;;14.23;7.55;;;;;;;16.63;100.00;101897.41;4927295;29;20740;-70
2022/08/12 03:42:36;;;;;;;11.77;7.53;;;;;;;16.29;100.00;101890.88;4927799;29;20047;-69
2022/08/12 04:01:56;;;;;;;14.70;8.80;;;;;;;15.95;100.00;101893.22;4925165;29;20748;-69
2022/08/12 04:04:27;;;;;;;18.52;8.45;;;;;;;15.99;100.00;101883.13;4920639;29;20044;-68
2022/08/12 04:06:53;;;;;;;10.70;8.52;;;;;;;16.03;100.00;101890.88;4923113;28;20062;-69
2022/08/12 04:09:22;;;;;;;13.20;8.88;;;;;;;16.05;100.00;101886.22;4920421;29;20098;-69
2022/08/12 04:14:33;;;;;;;13.00;8.20;;;;;;;15.99;100.00;101883.13;4910351;29;20080;-69
2022/08/12 04:17:00;;;;;;;16.33;9.25;;;;;;;16.10;100.00;101880.53;4917051;29;20035;-69
2022/08/12 04:19:25;;;;;;;11.05;8.05;;;;;;;15.84;100.00;101893.09;4928508;29;20047;-69
2022/08/12 04:21:52;;;;;;;21.35;8.98;;;;;;;15.82;100.00;101886.97;4917004;29;20062;-69
2022/08/12 04:24:19;;;;;;;14.45;9.35;;;;;;;15.63;100.00;101890.06;4928508;29;20483;-70
2022/08/12 04:26:44;;;;;;;18.35;9.65;;;;;;;15.85;100.00;101880.50;4923792;28;20047;-70
2022/08/12 04:29:10;;;;;;;22.45;8.65;;;;;;;15.96;100.00;101878.78;4910904;28;20047;-68
2022/08/12 04:31:38;;;;;;;14.52;8.85;;;;;;;15.91;100.00;101889.00;4921833;29;20039;-71
2022/08/12 04:34:08;;;;;;;18.77;10.15;;;;;;;15.95;100.00;101885.16;4929476;29;20046;-70
2022/08/12 04:36:37;;;;;;;13.32;9.02;;;;;;;16.14;100.00;101884.72;4929162;28;20071;-70
2022/08/12 04:39:04;;;;;;;16.85;9.20;;;;;;;16.17;100.00;101891.75;4928143;29;20042;-70
2022/08/12 04:41:30;;;;;;;14.20;9.13;;;;;;;16.27;100.00;101887.44;4919286;29;20170;-70
2022/08/12 04:43:57;;;;;;;12.38;8.75;;;;;;;16.34;100.00;101877.94;4920672;29;20048;-70
2022/08/12 04:46:23;;;;;;;13.55;8.40;;;;;;;16.55;100.00;101889.84;4925501;29;20437;-70
2022/08/12 04:48:53;;;;;;;18.95;10.80;;;;;;;16.93;100.00;101888.09;4927924;29;20051;-69
2022/08/12 04:51:20;;;;;;;17.08;10.05;;;;;;;17.16;100.00;101879.16;4927627;29;20031;-70
2022/08/12 04:53:47;;;;;;;15.52;9.88;;;;;;;16.97;100.00;101887.78;4925795;29;20059;-70
2022/08/12 04:56:13;;;;;;;16.25;8.82;;;;;;;16.90;100.00;101881.09;4927242;29;20054;-69
2022/08/12 04:58:40;;;;;;;18.80;9.63;;;;;;;16.98;100.00;101878.69;4926754;29;20581;-69
2022/08/12 05:01:06;;;;;;;15.38;9.82;;;;;;;16.61;100.00;101893.94;4926031;29;20043;-71
2022/08/12 05:03:34;;;;;;;15.43;9.20;;;;;;;16.88;100.00;101887.56;4926473;29;20118;-70
2022/08/12 05:06:00;;;;;;;15.40;8.93;;;;;;;17.01;100.00;101891.94;4913493;29;21015;-70
2022/08/12 05:08:25;;;;;;;15.27;9.75;;;;;;;17.15;100.00;101890.06;4923018;29;20042;-70
2022/08/12 05:10:52;;;;;;;15.63;9.48;;;;;;;17.30;100.00;101895.16;4919627;29;20122;-70
2022/08/12 05:13:27;;;;;;;14.55;9.57;;;;;;;17.30;100.00;101900.56;4911301;29;20048;-70
2022/08/12 05:15:52;;;;;;;13.38;9.18;;;;;;;17.47;99.38;101893.03;4917603;29;20091;-71
2022/08/12 05:18:18;;;;;;;13.43;9.25;;;;;;;17.68;99.89;101894.13;4921919;29;20163;-71
2022/08/12 05:20:43;;;;;;;15.77;9.32;;;;;;;17.76;98.25;101901.63;4909235;29;20419;-71
2022/08/12 05:23:17;;;;;;;13.85;9.23;;;;;;;17.73;98.69;101894.66;4914773;29;20027;-70
2022/08/12 05:25:44;;;;;;;15.68;9.75;;;;;;;18.04;96.77;101892.28;4932444;28;20035;-71
2022/08/12 05:28:11;;;;;;;15.23;8.98;;;;;;;17.90;96.87;101887.09;4918873;29;20043;-70
2022/08/12 05:30:37;;;;;;;14.05;10.32;;;;;;;18.00;98.07;101891.63;4930649;29;20134;-70
2022/08/12 05:33:05;;;;;;;15.52;9.98;;;;;;;18.28;98.01;101897.59;4912363;29;20828;-71
2022/08/12 05:35:35;;;;;;;17.08;8.82;;;;;;;18.26;95.70;101897.69;4902040;29;20039;-70
2022/08/12 05:40:47;;;;;;;16.98;9.18;;;;;;;18.58;94.27;101903.25;4918827;29;20174;-71
2022/08/12 05:43:13;;;;;;;15.15;8.13;;;;;;;18.56;93.22;101899.78;4929501;29;20054;-69
2022/08/12 05:45:38;;;;;;;13.32;8.75;;;;;;;18.61;92.10;101902.97;4931669;28;20174;-71
2022/08/12 05:48:05;;;;;;;12.10;8.98;;;;;;;18.54;91.58;101899.06;4913852;29;20300;-71
2022/08/12 05:50:30;;;;;;;14.98;8.95;;;;;;;18.79;91.88;101899.81;4917435;29;20043;-71
2022/08/12 05:52:56;;;;;;;14.95;9.15;;;;;;;18.71;92.75;101905.84;4901844;29;20047;-70
2022/08/12 05:55:22;;;;;;;12.40;8.15;;;;;;;18.86;90.77;101901.03;4930094;28;20035;-71
2022/08/12 05:57:55;;;;;;;14.27;9.10;;;;;;;18.94;88.99;101903.13;4931046;29;20505;-71
2022/08/12 06:00:24;;;;;;;10.68;7.88;;;;;;;19.26;87.31;101895.91;4915001;29;20038;-70
2022/08/12 06:02:59;;;;;;;15.38;8.90;;;;;;;19.18;88.16;101898.41;4921283;28;20149;-70
2022/08/12 06:05:35;;;;;;;16.98;9.20;;;;;;;19.67;85.23;101900.56;4918048;29;20039;-70
2022/08/12 06:08:06;;;;;;;13.13;9.27;;;;;;;19.53;83.93;101908.09;4912285;28;20039;-71
2022/08/12 06:10:35;;;;;;;13.60;9.23;;;;;;;19.52;85.28;101909.94;4929758;29;20041;-69
2022/08/12 06:13:05;;;;;;;19.38;9.02;;;;;;;19.77;83.19;101914.16;4929762;29;20058;-71
2022/08/12 06:15:34;;;;;;;18.88;9.18;;;;;;;20.31;79.65;101910.41;4930451;29;20059;-70
2022/08/12 06:18:05;;;;;;;13.20;9.77;;;;;;;20.37;79.85;101901.72;4929241;29;20035;-71
2022/08/12 06:20:30;;;;;;;11.88;9.70;;;;;;;20.29;78.71;101906.97;4912379;29;20098;-70
2022/08/12 06:22:56;;;;;;;10.85;8.55;;;;;;;20.71;78.79;101903.34;4929042;29;20039;-71
2022/08/12 06:25:21;;;;;;;16.13;9.23;;;;;;;20.56;77.91;101908.28;4932798;28;20031;-71
2022/08/12 06:27:48;;;;;;;16.20;9.23;;;;;;;20.49;78.80;101899.84;4929595;29;20890;-70
2022/08/12 06:30:15;;;;;;;12.20;8.25;;;;;;;20.78;79.42;101901.78;4928677;29;20047;-71
2022/08/12 06:32:43;;;;;;;10.82;9.20;;;;;;;20.99;79.68;101893.59;4928237;29;20142;-71
2022/08/12 06:35:10;;;;;;;14.75;9.32;;;;;;;21.56;77.46;101890.09;4928759;29;20047;-70
2022/08/12 06:37:48;;;;;;;15.40;9.32;;;;;;;21.86;74.85;101893.66;4927689;28;20043;-69
2022/08/12 06:40:15;;;;;;;14.77;9.48;;;;;;;22.41;72.14;101881.09;4929744;29;20449;-71
2022/08/12 06:42:53;;;;;;;15.35;9.63;;;;;;;22.18;73.68;101887.88;4928930;29;20106;-70
2022/08/12 06:45:18;;;;;;;12.85;9.27;;;;;;;22.23;71.07;101881.00;4930473;28;20074;-70
2022/08/12 06:47:45;;;;;;;16.17;8.93;;;;;;;22.74;70.87;101873.34;4929700;29;20047;-71
2022/08/12 06:50:17;;;;;;;13.90;8.68;;;;;;;22.88;69.01;101882.88;4929111;29;20563;-71
2022/08/12 06:52:43;;;;;;;14.30;9.20;;;;;;;22.98;68.23;101879.09;4929313;29;20466;-69
2022/08/12 06:55:12;;;;;;;13.45;8.35;;;;;;;23.17;66.50;101877.28;4912116;29;20058;-70
2022/08/12 06:58:00;;;;;;;20.40;10.10;;;;;;;23.27;64.91;101875.34;4929281;29;20137;-71
2022/08/12 07:00:32;;;;;;;16.15;9.60;;;;;;;23.49;62.86;101874.00;4929004;29;20043;-71
2022/08/12 07:02:58;;;;;;;;;;;;;;;23.91;63.81;101867.94;4929555;29;20043;-70
2022/08/12 07:05:24;;;;;;;15.75;9.55;;;;;;;23.78;61.93;101877.34;4928482;29;19930;-71
2022/08/12 07:08:07;;;;;;;12.82;8.43;;;;;;;24.69;60.89;101867.84;4930205;29;20430;-70
2022/08/12 07:10:33;;;;;;;16.73;8.85;;;;;;;25.15;57.70;101884.75;4929898;29;20027;-71
2022/08/12 07:13:02;;;;;;;11.88;8.10;;;;;;;25.55;56.90;101879.38;4913661;29;20391;-70
2022/08/12 07:15:29;;;;;;;15.20;8.98;;;;;;;25.96;55.74;101871.16;4918178;29;20073;-69
2022/08/12 07:20:30;;;;;;;12.18;8.18;;;;;;;25.43;54.90;101885.31;4930039;29;20039;-70
2022/08/12 07:23:00;;;;;;;10.43;7.15;;;;;;;26.55;54.68;101885.38;4912298;29;20113;-70
2022/08/12 07:25:33;;;;;;;13.80;8.20;;;;;;;26.91;54.38;101884.03;4932970;28;20117;-70
2022/08/12 07:28:04;;;;;;;11.45;8.20;;;;;;;26.79;51.12;101878.97;4910620;29;20075;-70
2022/08/12 07:30:31;;;;;;;13.38;7.75;;;;;;;26.71;51.40;101883.59;4909412;29;20052;-70
2022/08/12 07:33:00;;;;;;;12.13;7.85;;;;;;;27.27;51.41;101889.84;4909627;29;20805;-70
2022/08/12 07:35:26;;;;;;;11.02;6.82;;;;;;;26.73;51.50;101881.56;4910737;29;20043;-70
2022/08/12 07:37:53;;;;;;;9.88;7.15;;;;;;;27.25;50.27;101886.44;4917483;29;20039;-71
2022/08/12 07:40:18;;;;;;;12.65;7.70;;;;;;;27.41;50.37;101886.34;4916697;29;20079;-70
2022/08/12 07:42:44;;;;;;;12.07;7.80;;;;;;;28.12;48.92;101873.22;4925173;29;20038;-70
2022/08/12 07:45:11;;;;;;;10.82;6.50;;;;;;;28.20;47.80;101877.75;4906923;29;20952;-70
2022/08/12 07:47:41;;;;;;;11.93;6.38;;;;;;;28.23;47.19;101880.13;4912979;29;20038;-71
2022/08/12 07:50:09;;;;;;;11.23;6.43;;;;;;;28.44;48.79;101880.25;4911434;29;20040;-71
2022/08/12 07:52:41;;;;;;;8.93;5.72;;;;;;;28.60;45.12;101888.28;4916538;29;20038;-71
2022/08/12 07:55:07;;;;;;;10.80;6.05;;;;;;;28.91;46.70;101885.31;4917897;29;20131;-70
2022/08/12 07:57:32;;;;;;;7.93;5.15;;;;;;;29.56;43.77;101886.28;4911302;29;20044;-70
2022/08/12 08:00:07;;;;;;;7.82;5.03;;;;;;;30.00;40.79;101876.91;4910779;29;20114;-70
2022/08/12 08:02:34;;;;;;;7.93;4.93;;;;;;;29.98;41.63;101892.78;4916794;29;20116;-70
2022/08/12 08:04:59;;;;;;;11.32;4.82;;;;;;;28.59;42.80;101889.34;4916676;29;20040;-70
2022/08/12 08:07:28;;;;;;;11.05;4.18;;;;;;;29.19;43.88;101898.34;4910398;29;20039;-71
2022/08/12 08:09:57;;;;;;;11.40;4.25;;;;;;;29.74;42.14;101891.31;4909416;29;20235;-69
2022/08/12 08:15:13;;;;;;;7.97;3.92;;;;;;;29.67;41.83;101890.38;4916082;29;20998;-70
2022/08/12 08:17:39;;;;;;;8.50;3.92;;;;;;;29.92;39.86;101888.06;4928688;29;20043;-70
2022/08/12 08:20:08;;;;;;;4.97;3.65;;;;;;;30.35;39.78;101876.97;4913394;28;20066;-69
2022/08/12 08:22:37;;;;;;;9.85;4.30;;;;;;;30.43;39.84;101879.56;4922687;29;20046;-70
2022/08/12 08:25:04;;;;;;;10.35;3.92;;;;;;;29.73;39.29;101880.53;4932769;28;20112;-69
2022/08/12 08:27:44;;;;;;;7.32;3.40;;;;;;;30.10;37.55;101880.16;4931986;28;20063;-70
2022/08/12 08:30:11;;;;;;;6.57;4.03;;;;;;;29.72;39.18;101879.69;4927764;29;20081;-71
2022/08/12 08:32:36;;;;;;;8.43;3.92;;;;;;;30.34;37.48;101869.78;4929555;29;20043;-71
2022/08/12 08:35:02;;;;;;;5.60;3.47;;;;;;;29.77;40.05;101877.19;4928686;29;20054;-72
2022/08/12 08:37:27;;;;;;;4.32;3.45;;;;;;;29.87;38.50;101877.69;4910474;29;20155;-71
2022/08/12 08:39:53;;;;;;;5.80;3.40;;;;;;;30.50;36.37;101874.94;4912097;29;20031;-72
2022/08/12 08:42:39;;;;;;;8.00;3.05;;;;;;;30.28;38.61;101876.94;4919147;28;20039;-71
2022/08/12 08:45:11;;;;;;;4.72;3.08;;;;;;;31.13;36.43;101883.94;4927896;29;20130;-71
2022/08/12 08:47:47;;;;;;;5.90;3.70;;;;;;;30.40;37.34;101880.81;4928404;28;20035;-72
2022/08/12 08:50:14;;;;;;;5.68;3.00;;;;;;;30.17;34.96;101872.88;4915724;28;20035;-72
2022/08/12 08:52:44;;;;;;;5.97;3.33;;;;;;;30.46;36.09;101875.56;4913242;29;20071;-70
2022/08/12 08:55:12;;;;;;;10.95;3.50;;;;;;;30.15;36.43;101874.94;4914000;29;20070;-72
2022/08/12 08:57:39;;;;;;;7.18;3.00;;;;;;;30.05;35.26;101876.31;4914528;29;20115;-72
2022/08/12 09:00:06;;;;;;;10.40;3.78;;;;;;;30.00;37.38;101871.41;4922153;28;20059;-72
2022/08/12 09:02:31;;;;;;;13.68;3.38;;;;;;;30.03;38.65;101870.19;4929884;29;20053;-72
2022/08/12 09:04:57;;;;;;;11.60;3.58;;;;;;;29.67;39.65;101865.66;4911933;29;20448;-71
2022/08/12 09:07:22;;;;;;;5.60;3.30;;;;;;;29.71;35.06;101871.59;4926307;29;20048;-71
2022/08/12 09:09:50;;;;;;;4.68;3.30;;;;;;;29.54;37.47;101871.88;4915171;29;20035;-70
2022/08/12 09:15:20;;;;;;;7.43;3.40;;;;;;;30.04;39.73;101869.97;4890057;29;20068;-70
2022/08/12 09:17:58;;;;;;;8.82;3.22;;;;;;;30.52;36.92;101872.81;4889913;29;20130;-71
2022/08/12 09:20:26;;;;;;;6.30;3.05;;;;;;;29.98;37.13;101869.94;4890127;29;20072;-72
2022/08/12 09:22:53;;;;;;;4.68;2.83;;;;;;;29.92;36.21;101875.19;4887749;29;20050;-71
2022/08/12 09:25:25;;;;;;;9.88;2.92;;;;;;;29.96;33.59;101864.63;4889220;29;20052;-71
2022/08/12 09:27:54;;;;;;;15.32;3.45;;;;;;;30.01;36.53;101870.38;4890739;29;20945;-71
2022/08/12 09:30:20;;;;;;;10.70;3.50;;;;;;;30.30;35.91;101863.81;4889929;29;20052;-71
2022/08/12 09:32:49;;;;;;;6.07;3.05;;;;;;;30.01;35.00;101862.13;4890909;29;20044;-71
2022/08/12 09:35:18;;;;;;;4.18;3.22;;;;;;;30.14;34.26;101866.91;4888172;29;20047;-71
2022/08/12 09:37:45;;;;;;;6.97;3.38;;;;;;;30.25;35.13;101866.34;4891015;29;20172;-72
2022/08/12 09:40:11;;;;;;;6.18;2.72;;;;;;;30.65;35.66;101867.41;4887933;29;20171;-70
2022/08/12 09:45:24;;;;;;;5.07;3.20;;;;;;;30.47;35.26;101866.22;4895985;29;20047;-71
2022/08/12 09:47:50;;;;;;;10.18;4.15;;;;;;;30.36;34.31;101864.91;4920450;29;20035;-71
2022/08/12 09:50:16;;;;;;;3.63;3.33;;;;;;;30.13;34.14;101859.69;4920602;29;20147;-72
2022/08/12 09:52:44;;;;;;;7.75;3.08;;;;;;;30.56;35.23;101865.84;4915324;29;20043;-71
2022/08/12 09:55:11;;;;;;;5.00;3.03;;;;;;;30.54;33.51;101862.47;4914093;28;20486;-70
2022/08/12 09:57:37;;;;;;;3.30;3.00;;;;;;;30.59;32.19;101853.59;4916923;29;20044;-70
2022/08/12 10:00:04;;;;;;;8.10;3.00;;;;;;;30.57;32.32;101853.78;4913912;29;20169;-71
2022/08/12 10:02:38;;;;;;;5.75;3.00;;;;;;;30.72;33.50;101839.91;4918375;29;20106;-72
2022/08/12 10:05:05;;;;;;;13.25;3.67;;;;;;;30.39;33.63;101848.00;4898190;29;20039;-70
2022/08/12 10:07:31;;;;;;;4.90;3.08;;;;;;;30.68;36.29;101844.13;4915046;29;20805;-71
2022/08/12 10:09:56;;;;;;;6.00;3.08;;;;;;;30.41;34.82;101845.88;4919395;29;20035;-71
2022/08/12 10:15:06;;;;;;;10.75;2.65;;;;;;;30.64;34.15;101840.91;4914396;29;20044;-71
2022/08/12 10:17:31;;;;;;;5.57;3.10;;;;;;;30.38;31.76;101841.66;4914839;29;20046;-70
2022/08/12 10:19:57;;;;;;;5.90;3.25;;;;;;;30.83;35.40;101835.72;4915744;28;20148;-69
2022/08/12 10:22:22;;;;;;;3.50;2.55;;;;;;;30.76;31.35;101838.44;4917542;29;20040;-71
2022/08/12 10:29:35;;;;;;;5.35;2.72;;;;;;;30.81;33.14;101835.91;4920294;28;20036;-69
2022/08/12 10:30:20;;;;;;;3.95;3.20;;;;;;;30.43;32.98;101821.78;4916173;29;20411;-72
2022/08/12 10:33:04;;;;;;;3.22;2.90;;;;;;;31.06;32.03;101818.81;4901058;29;20779;-72
2022/08/12 10:35:32;;;;;;;5.75;2.85;;;;;;;30.37;31.98;101815.19;4914586;29;20099;-71
2022/08/12 10:38:01;;;;;;;7.70;3.15;;;;;;;31.04;32.50;101816.28;4911335;29;20142;-72
2022/08/12 10:40:30;;;;;;;4.53;3.42;;;;;;;30.80;30.59;101814.94;4917693;29;20150;-72
2022/08/12 10:45:41;;;;;;;4.25;2.90;;;;;;;31.28;32.21;101798.31;4920086;29;20051;-72
2022/08/12 10:48:06;;;;;;;4.40;3.10;;;;;;;31.10;31.30;101812.69;4915429;29;20036;-72
2022/08/12 10:50:32;;;;;;;6.30;2.92;;;;;;;31.13;32.30;101794.88;4917772;29;20553;-71
2022/08/12 10:52:59;;;;;;;8.52;2.90;;;;;;;30.77;31.73;101790.56;4916652;29;20051;-71
2022/08/12 10:55:24;;;;;;;4.78;2.55;;;;;;;30.91;31.51;101792.28;4914087;29;20071;-72
2022/08/12 10:57:51;;;;;;;4.75;2.75;;;;;;;30.61;32.70;101790.91;4918438;29;20051;-72
2022/08/12 11:00:16;;;;;;;7.28;2.70;;;;;;;31.09;31.42;101786.19;4912730;29;20042;-71
2022/08/12 11:02:53;;;;;;;5.43;3.00;;;;;;;31.14;32.55;101786.41;4914271;29;20850;-70
2022/08/12 11:05:18;;;;;;;8.00;3.17;;;;;;;31.33;32.67;101772.88;4912569;29;20777;-72
2022/08/12 11:07:44;;;;;;;7.70;3.90;;;;;;;30.92;31.74;101782.13;4897834;29;20075;-71
2022/08/12 11:10:12;;;;;;;3.22;2.95;;;;;;;30.93;30.86;101778.31;4919402;29;20556;-71
2022/08/12 11:12:43;;;;;;;7.00;3.17;;;;;;;31.41;31.77;101767.13;4917715;29;20086;-71
2022/08/12 11:15:09;;;;;;;6.53;3.17;;;;;;;31.34;31.46;101761.63;4915077;29;20052;-70
2022/08/12 11:17:35;;;;;;;2.70;2.50;;;;;;;31.33;31.02;101756.34;4914913;29;20650;-70
2022/08/12 11:20:00;;;;;;;7.07;3.08;;;;;;;31.37;30.65;101752.09;4916648;29;20042;-71
2022/08/12 11:22:25;;;;;;;6.95;3.50;;;;;;;31.21;30.73;101742.31;4920154;29;20813;-71
2022/08/12 11:24:51;;;;;;;4.63;3.22;;;;;;;31.41;32.50;101740.41;4910152;29;20043;-71
2022/08/12 11:27:16;;;;;;;5.20;3.10;;;;;;;31.10;31.19;101746.53;4914085;29;20043;-71
2022/08/12 11:29:42;;;;;;;5.75;2.50;;;;;;;31.31;31.45;101741.91;4914576;29;20039;-72
2022/08/12 11:32:07;;;;;;;7.35;2.60;;;;;;;31.68;31.36;101732.97;4914676;29;20090;-70
2022/08/12 11:34:33;;;;;;;3.92;2.58;;;;;;;31.79;31.34;101736.13;4911085;29;20302;-70
2022/08/12 11:37:03;;;;;;;4.53;2.50;;;;;;;31.87;30.80;101736.75;4912988;29;20055;-71
2022/08/12 11:39:30;;;;;;;4.85;2.65;;;;;;;31.59;29.28;101737.00;4919442;29;20046;-71
2022/08/12 11:41:56;;;;;;;5.20;3.10;;;;;;;31.72;31.22;101723.19;4914304;29;20040;-71
2022/08/12 11:44:21;;;;;;;5.78;3.00;;;;;;;31.68;29.60;101732.13;4916009;29;20823;-72
2022/08/12 11:46:47;;;;;;;4.95;2.92;;;;;;;31.70;29.04;101727.22;4914878;29;20039;-70
2022/08/12 11:49:13;;;;;;;3.72;3.17;;;;;;;31.59;30.93;101719.63;4918861;29;20031;-71
2022/08/12 11:51:39;;;;;;;8.48;3.10;;;;;;;31.41;31.00;101726.63;4916657;29;20036;-70
2022/08/12 11:54:05;;;;;;;3.97;3.05;;;;;;;31.29;30.37;101719.22;4912544;29;20892;-71
2022/08/12 11:56:31;;;;;;;7.72;3.17;;;;;;;31.27;29.77;101724.94;4915690;29;20425;-71
2022/08/12 11:58:57;;;;;;;9.93;2.70;;;;;;;31.39;30.05;101717.75;4912247;29;20031;-71
2022/08/12 12:01:23;;;;;;;5.10;2.60;;;;;;;31.56;29.18;101712.63;4912716;29;20106;-70
2022/08/12 12:03:48;;;;;;;4.53;2.50;;;;;;;31.54;31.33;101714.75;4915471;29;20087;-71
2022/08/12 12:06:14;;;;;;;5.68;2.72;;;;;;;31.45;30.11;101708.59;4910885;29;20031;-70
2022/08/12 12:08:40;;;;;;;6.13;2.80;;;;;;;31.92;30.78;101708.50;4916811;29;20043;-71
2022/08/12 12:11:06;;;;;;;5.93;2.60;;;;;;;32.02;30.25;101700.63;4918285;29;20186;-71
2022/08/12 12:13:31;;;;;;;5.68;3.05;;;;;;;32.21;29.81;101707.13;4911792;29;20035;-72
2022/08/12 12:15:57;;;;;;;6.22;2.45;;;;;;;32.08;28.92;101705.28;4912342;29;20501;-69
2022/08/12 12:18:23;;;;;;;4.40;2.72;;;;;;;31.93;30.78;101700.03;4913975;29;20032;-69
2022/08/12 12:20:51;;;;;;;4.43;2.95;;;;;;;31.87;29.75;101702.81;4912532;29;20228;-71
2022/08/12 12:23:17;;;;;;;7.75;2.45;;;;;;;31.97;29.48;101703.19;4911114;29;20053;-71
2022/08/12 12:25:42;;;;;;;4.60;2.53;;;;;;;31.98;30.27;101704.91;4920467;28;20450;-71
2022/08/12 12:28:08;;;;;;;7.97;2.65;;;;;;;32.28;28.43;101702.41;4911874;29;20051;-71
2022/08/12 12:30:35;;;;;;;5.35;2.65;;;;;;;31.95;29.92;101705.34;4915116;29;20032;-71
2022/08/12 12:33:01;;;;;;;8.05;2.70;;;;;;;31.59;29.56;101698.41;4914739;29;20039;-72
2022/08/12 12:35:26;;;;;;;5.47;2.75;;;;;;;32.04;28.71;101692.16;4910488;29;20385;-71
2022/08/12 12:37:59;;;;;;;6.13;2.90;;;;;;;32.22;29.35;101690.34;4909926;29;20055;-70
2022/08/12 12:40:26;;;;;;;6.13;2.90;;;;;;;31.90;28.92;101686.66;4913530;29;20048;-71
2022/08/12 12:42:53;;;;;;;7.32;2.75;;;;;;;31.92;28.43;101686.44;4909956;29;20671;-71
2022/08/12 12:45:19;;;;;;;6.85;2.78;;;;;;;31.97;29.02;101681.97;4911549;29;20753;-71
2022/08/12 12:48:16;;;;;;;4.05;2.60;;;;;;;32.55;28.84;101691.28;4911253;29;20048;-72
2022/08/12 12:50:46;;;;;;;6.60;3.35;;;;;;;32.36;28.49;101682.88;4883660;28;20062;-72
2022/08/12 12:53:17;;;;;;;6.03;2.80;;;;;;;32.07;27.89;101678.72;4917627;28;20054;-72
2022/08/12 12:55:45;;;;;;;2.50;2.30;;;;;;;32.28;30.40;101682.25;4916556;29;20039;-71
2022/08/12 12:58:15;;;;;;;3.83;3.00;;;;;;;32.55;28.33;101685.75;4915298;29;20471;-71
2022/08/12 13:00:43;;;;;;;3.47;2.60;;;;;;;32.52;28.09;101677.88;4914439;29;20039;-72
2022/08/12 13:03:11;;;;;;;4.55;2.30;;;;;;;32.14;28.06;101678.72;4912654;29;20210;-71
2022/08/12 13:05:37;;;;;;;6.05;2.30;;;;;;;32.21;29.85;101680.38;4915201;29;20110;-71
2022/08/12 13:08:29;;;;;;;4.57;2.53;;;;;;;32.18;28.40;101675.31;4892438;29;20863;-71
2022/08/12 13:11:00;;;;;;;4.40;2.67;;;;;;;32.25;27.97;101671.66;4915738;29;20126;-71
2022/08/12 13:13:28;;;;;;;6.18;2.50;;;;;;;32.25;27.69;101661.47;4910661;29;20307;-72